Time;durP1;ratioP1;P1;durP2;ratioP2;P2;SDS_P1;SDS_P2;PMS_P1;PMS_P2;Temp;Humidity;BMP_temperature;BMP_pressure;BME280_temperature;BME280_humidity;BME280_pressure;Samples;Min_cycle;Max_cycle;Signal;HPM_P1;HPM_P2
2023/08/10 04:04:58;;;;;;;3.50;1.93;;;12.70;99.90;;;;;;5849983;23;20504;-60
2023/08/10 04:07:24;;;;;;;2.60;2.40;;;12.70;99.90;;;;;;4975211;28;20478;-60
2023/08/10 04:09:49;;;;;;;2.27;2.07;;;12.80;99.90;;;;;;4975672;28;20501;-60
2023/08/10 04:12:16;;;;;;;2.30;2.10;;;12.80;99.90;;;;;;4975622;28;20178;-60
2023/08/10 04:14:41;;;;;;;1.90;1.80;;;12.80;99.90;;;;;;4974877;28;20222;-60
2023/08/10 04:17:07;;;;;;;2.90;2.67;;;12.80;99.90;;;;;;4975453;28;20458;-60
2023/08/10 04:19:32;;;;;;;1.87;1.77;;;12.80;99.90;;;;;;4975370;28;20182;-60
2023/08/10 04:21:58;;;;;;;2.20;2.00;;;12.80;99.90;;;;;;4975490;28;20183;-60
2023/08/10 04:24:23;;;;;;;2.40;2.23;;;12.80;99.90;;;;;;4975033;28;20636;-60
2023/08/10 04:26:49;;;;;;;2.00;1.80;;;12.80;99.90;;;;;;4975211;28;20203;-60
2023/08/10 04:29:16;;;;;;;2.10;2.00;;;12.80;99.90;;;;;;4975161;28;20591;-60
2023/08/10 04:31:42;;;;;;;1.97;1.83;;;12.80;99.90;;;;;;4974971;28;20261;-60
2023/08/10 04:34:08;;;;;;;4.23;1.70;;;12.90;99.90;;;;;;4974555;28;20436;-60
2023/08/10 04:36:34;;;;;;;2.13;2.03;;;12.90;99.90;;;;;;4974782;28;20820;-60
2023/08/10 04:39:00;;;;;;;2.77;2.03;;;12.90;99.90;;;;;;4975193;28;20206;-60
2023/08/10 04:41:26;;;;;;;1.80;1.70;;;12.90;99.90;;;;;;4974984;28;20437;-60
2023/08/10 04:43:52;;;;;;;2.47;2.27;;;12.90;99.90;;;;;;4974866;28;20943;-60
2023/08/10 04:46:17;;;;;;;2.70;2.50;;;12.90;99.90;;;;;;4974894;28;20195;-59
2023/08/10 04:48:43;;;;;;;2.67;2.33;;;12.90;99.90;;;;;;4974903;28;20202;-59
2023/08/10 04:51:09;;;;;;;2.97;2.77;;;13.00;99.90;;;;;;4975048;28;20178;-59
2023/08/10 04:53:34;;;;;;;2.63;2.43;;;13.00;99.90;;;;;;4974591;28;20711;-59
2023/08/10 04:56:00;;;;;;;2.57;2.43;;;13.00;99.90;;;;;;4974909;28;20289;-59
2023/08/10 04:58:26;;;;;;;2.00;1.90;;;13.10;99.90;;;;;;4974816;28;20184;-59
2023/08/10 05:00:55;;;;;;;2.83;2.50;;;13.10;99.90;;;;;;4974871;28;20986;-60
2023/08/10 05:03:20;;;;;;;2.40;2.17;;;13.20;99.90;;;;;;4974765;28;20186;-60
2023/08/10 05:05:46;;;;;;;2.87;2.67;;;13.30;99.90;;;;;;4974226;28;20457;-59
2023/08/10 05:08:12;;;;;;;2.67;2.00;;;13.40;99.90;;;;;;4974111;28;20254;-59
2023/08/10 05:10:38;;;;;;;2.50;2.30;;;13.50;99.90;;;;;;4974551;28;20410;-60
2023/08/10 05:13:04;;;;;;;2.40;2.20;;;13.70;99.90;;;;;;4974778;28;20183;-59
2023/08/10 05:15:30;;;;;;;3.30;2.70;;;13.70;99.90;;;;;;4974181;28;20430;-59
2023/08/10 05:17:55;;;;;;;2.10;1.90;;;13.70;99.90;;;;;;4974708;28;20425;-59
2023/08/10 05:20:21;;;;;;;1.97;1.87;;;13.70;99.90;;;;;;4974675;28;20183;-59
2023/08/10 05:22:49;;;;;;;2.13;2.03;;;13.70;99.90;;;;;;4974343;28;20171;-61
2023/08/10 05:25:15;;;;;;;1.80;1.70;;;13.70;99.90;;;;;;4974330;28;20434;-59
2023/08/10 05:27:40;;;;;;;2.23;2.13;;;13.70;99.90;;;;;;4974455;28;20482;-61
2023/08/10 05:30:11;;;;;;;2.17;2.07;;;13.70;99.90;;;;;;4974236;28;20199;-60
2023/08/10 05:32:39;;;;;;;3.30;3.00;;;13.80;99.90;;;;;;4974374;28;20980;-60
2023/08/10 05:35:08;;;;;;;2.60;2.23;;;13.90;99.90;;;;;;4974144;28;20517;-60
2023/08/10 05:37:35;;;;;;;2.57;2.37;;;14.00;99.90;;;;;;4974382;28;20452;-60
2023/08/10 05:40:01;;;;;;;2.83;2.43;;;14.10;99.90;;;;;;4957310;28;20473;-60
2023/08/10 05:42:27;;;;;;;2.63;2.43;;;14.20;99.90;;;;;;4974305;28;20914;-60
2023/08/10 05:44:53;;;;;;;2.80;2.10;;;14.30;99.90;;;;;;4974145;28;20817;-60
2023/08/10 05:47:18;;;;;;;3.73;2.33;;;14.40;99.90;;;;;;4974385;28;20467;-60
2023/08/10 05:49:44;;;;;;;3.00;2.70;;;14.40;99.90;;;;;;4974613;28;20403;-60
2023/08/10 05:52:10;;;;;;;2.93;2.67;;;14.50;99.90;;;;;;4974310;28;20260;-60
2023/08/10 05:54:35;;;;;;;4.30;2.70;;;14.60;99.90;;;;;;4973985;28;20196;-60
2023/08/10 05:57:01;;;;;;;3.00;2.77;;;14.70;99.90;;;;;;4974317;28;20231;-60
2023/08/10 05:59:26;;;;;;;3.00;2.57;;;14.80;99.90;;;;;;4974138;28;20169;-60
2023/08/10 06:01:53;;;;;;;4.57;3.03;;;14.90;99.90;;;;;;4974367;28;20254;-60
2023/08/10 06:04:18;;;;;;;3.17;2.87;;;15.00;99.90;;;;;;4973833;28;20184;-60
2023/08/10 06:06:46;;;;;;;2.80;2.53;;;15.20;99.90;;;;;;4974011;28;20464;-60
2023/08/10 06:09:11;;;;;;;3.90;3.50;;;15.30;99.90;;;;;;4974184;28;20169;-60
2023/08/10 06:11:37;;;;;;;3.33;3.03;;;15.50;99.90;;;;;;4974061;28;20775;-60
2023/08/10 06:14:03;;;;;;;2.70;2.50;;;15.70;99.90;;;;;;4973801;28;20201;-60
2023/08/10 06:16:29;;;;;;;2.77;2.37;;;15.90;99.90;;;;;;4974138;28;20198;-60
2023/08/10 06:18:55;;;;;;;2.43;2.23;;;16.20;99.90;;;;;;4975052;28;20819;-60
2023/08/10 06:21:20;;;;;;;2.60;2.30;;;16.30;99.90;;;;;;4977566;28;20270;-61
2023/08/10 06:23:46;;;;;;;2.73;2.00;;;16.50;99.90;;;;;;4977383;28;20164;-60
2023/08/10 06:26:12;;;;;;;2.10;2.00;;;16.50;99.90;;;;;;4977461;28;20191;-61
2023/08/10 06:28:38;;;;;;;1.80;1.70;;;16.50;99.90;;;;;;4977361;28;20218;-60
2023/08/10 06:31:09;;;;;;;2.77;2.57;;;16.50;99.90;;;;;;4977467;28;20407;-61
2023/08/10 06:33:36;;;;;;;1.80;1.67;;;16.50;99.90;;;;;;4977121;28;20411;-61
2023/08/10 06:36:02;;;;;;;2.07;1.93;;;16.50;99.90;;;;;;4977325;28;20567;-60
2023/08/10 06:38:29;;;;;;;1.80;1.70;;;16.60;99.90;;;;;;4959990;28;20394;-60
2023/08/10 06:40:55;;;;;;;1.80;1.57;;;16.70;99.90;;;;;;4977116;28;20867;-60
2023/08/10 06:43:21;;;;;;;2.33;2.00;;;16.70;99.90;;;;;;4977256;28;20422;-60
2023/08/10 06:45:47;;;;;;;2.93;1.70;;;16.60;99.90;;;;;;4976631;28;20411;-60
2023/08/10 06:48:12;;;;;;;2.20;1.77;;;16.50;99.90;;;;;;4976922;28;20219;-59
2023/08/10 06:50:39;;;;;;;2.67;2.33;;;16.40;99.90;;;;;;4977228;28;20175;-60
2023/08/10 06:53:05;;;;;;;1.83;1.73;;;16.40;99.90;;;;;;4976912;28;20182;-60
2023/08/10 06:55:33;;;;;;;2.83;2.63;;;16.20;99.90;;;;;;4976720;28;20451;-60
2023/08/10 06:57:59;;;;;;;2.43;1.60;;;16.20;99.90;;;;;;4976821;28;20763;-60
2023/08/10 07:00:25;;;;;;;2.03;1.93;;;16.20;99.90;;;;;;4976975;28;20186;-60
2023/08/10 07:02:53;;;;;;;2.27;2.03;;;16.20;99.90;;;;;;4976867;28;20415;-60
2023/08/10 07:05:21;;;;;;;2.80;2.20;;;16.30;99.90;;;;;;4976472;28;20470;-60
2023/08/10 07:07:47;;;;;;;1.47;1.37;;;16.40;99.90;;;;;;4976317;28;20520;-60
2023/08/10 07:10:14;;;;;;;2.00;1.33;;;16.50;99.90;;;;;;4976810;28;20422;-60
2023/08/10 07:12:42;;;;;;;1.40;1.30;;;16.70;99.90;;;;;;4976490;28;20500;-60
2023/08/10 07:15:08;;;;;;;2.13;1.93;;;16.80;99.90;;;;;;4976429;28;20804;-60
2023/08/10 07:17:34;;;;;;;1.93;1.83;;;17.00;99.90;;;;;;4976701;28;20374;-60
2023/08/10 07:20:00;;;;;;;1.73;1.63;;;17.10;99.90;;;;;;4976623;28;20886;-61
2023/08/10 07:22:25;;;;;;;1.80;1.70;;;17.10;99.90;;;;;;4976545;28;20415;-61
2023/08/10 07:24:51;;;;;;;1.70;1.60;;;17.10;99.90;;;;;;4976004;28;20303;-61
2023/08/10 07:27:17;;;;;;;3.03;2.30;;;17.20;99.90;;;;;;4976236;28;20204;-61
2023/08/10 07:29:43;;;;;;;3.07;1.90;;;17.40;99.90;;;;;;4976037;28;20187;-60
2023/08/10 07:32:08;;;;;;;3.57;1.73;;;17.50;99.90;;;;;;4976123;28;20408;-60
2023/08/10 07:34:34;;;;;;;1.83;1.73;;;17.70;99.90;;;;;;4975793;28;20773;-59
2023/08/10 07:37:00;;;;;;;1.40;1.30;;;17.80;99.90;;;;;;4976164;28;20642;-59
2023/08/10 07:39:26;;;;;;;1.73;1.63;;;17.90;99.90;;;;;;4975951;28;20184;-60
2023/08/10 07:41:52;;;;;;;1.93;1.83;;;18.00;99.90;;;;;;4975987;28;20554;-60
2023/08/10 07:44:18;;;;;;;1.53;1.43;;;18.20;99.90;;;;;;4975556;28;20187;-61
2023/08/10 07:46:46;;;;;;;1.90;1.80;;;18.20;99.90;;;;;;4975877;28;20455;-60
2023/08/10 07:49:14;;;;;;;2.20;2.00;;;18.30;99.90;;;;;;4975999;28;20228;-60
2023/08/10 07:51:41;;;;;;;1.40;1.30;;;18.50;99.90;;;;;;4975674;28;20906;-60
2023/08/10 07:54:08;;;;;;;1.27;1.17;;;18.70;99.90;;;;;;4975675;28;20432;-60
2023/08/10 07:56:34;;;;;;;1.07;1.07;;;18.80;99.90;;;;;;4975875;28;20415;-59
2023/08/10 07:59:00;;;;;;;1.83;1.73;;;19.00;99.90;;;;;;4975848;28;20397;-60
2023/08/10 08:01:26;;;;;;;1.13;1.13;;;19.20;99.90;;;;;;4958460;28;20412;-60
2023/08/10 08:03:52;;;;;;;1.40;0.93;;;19.30;99.90;;;;;;4975512;28;20596;-60
2023/08/10 08:06:17;;;;;;;1.40;1.40;;;19.60;99.90;;;;;;4975383;28;20562;-59
2023/08/10 08:08:43;;;;;;;1.57;1.50;;;19.80;99.90;;;;;;4975623;28;20200;-60
2023/08/10 08:11:08;;;;;;;1.00;1.00;;;20.10;99.90;;;;;;4958637;28;20180;-60
2023/08/10 08:13:34;;;;;;;0.93;0.93;;;20.40;99.90;;;;;;4975421;28;20170;-60
2023/08/10 08:16:00;;;;;;;0.93;0.93;;;20.60;99.90;;;;;;4975538;28;20188;-60
2023/08/10 08:18:45;;;;;;;1.23;1.10;;;20.90;99.90;;;;;;4975568;28;20182;-60
2023/08/10 08:21:18;;;;;;;1.00;1.00;;;21.30;99.90;;;;;;4975502;28;20199;-60
2023/08/10 08:23:44;;;;;;;1.60;1.23;;;21.70;99.90;;;;;;4957956;28;20455;-60
2023/08/10 08:26:11;;;;;;;1.33;1.23;;;22.30;99.90;;;;;;4975214;28;20420;-60
2023/08/10 08:28:36;;;;;;;1.40;1.30;;;22.80;99.90;;;;;;4975452;28;20467;-60
2023/08/10 08:31:03;;;;;;;1.30;1.20;;;23.30;99.90;;;;;;4975304;28;20560;-60
2023/08/10 08:33:29;;;;;;;2.40;1.83;;;23.50;99.90;;;;;;4975001;28;20439;-61
2023/08/10 08:35:55;;;;;;;1.40;1.37;;;23.60;99.90;;;;;;4975479;28;20467;-61
2023/08/10 08:38:21;;;;;;;1.20;1.20;;;23.80;99.90;;;;;;4975248;28;20424;-61
2023/08/10 08:40:50;;;;;;;1.20;1.13;;;23.90;99.90;;;;;;4975040;28;20186;-61
2023/08/10 08:43:17;;;;;;;1.50;1.40;;;23.90;99.90;;;;;;4974514;28;20538;-60
2023/08/10 08:45:43;;;;;;;1.23;1.20;;;23.80;99.90;;;;;;4974668;28;20435;-61
2023/08/10 08:48:09;;;;;;;1.30;1.13;;;24.20;99.90;;;;;;4975469;28;20479;-59
2023/08/10 08:50:39;;;;;;;1.70;1.60;;;24.70;99.90;;;;;;4975177;28;20741;-60
2023/08/10 08:53:06;;;;;;;1.60;1.50;;;25.40;99.90;;;;;;4975196;28;21037;-61
2023/08/10 08:55:32;;;;;;;1.70;1.60;;;26.20;99.90;;;;;;4974663;28;20410;-60
2023/08/10 08:57:58;;;;;;;1.90;1.70;;;26.80;99.60;;;;;;4975065;28;20394;-60
2023/08/10 09:00:24;;;;;;;1.53;1.43;;;27.40;98.60;;;;;;4974621;28;20374;-60
2023/08/10 09:02:50;;;;;;;2.27;1.97;;;28.00;97.20;;;;;;4974746;28;20204;-60
2023/08/10 09:05:17;;;;;;;1.70;1.60;;;28.50;95.90;;;;;;4974615;28;20255;-60
2023/08/10 09:07:43;;;;;;;1.83;1.73;;;29.10;95.80;;;;;;4974851;28;20520;-60
2023/08/10 09:10:09;;;;;;;1.70;1.60;;;30.00;94.40;;;;;;4975640;28;20446;-60
2023/08/10 09:12:39;;;;;;;1.90;1.80;;;30.90;92.70;;;;;;4975298;28;20172;-61
2023/08/10 09:15:06;;;;;;;2.10;2.00;;;31.20;90.30;;;;;;4974545;28;20460;-60
2023/08/10 09:17:34;;;;;;;1.90;1.80;;;31.20;90.90;;;;;;4974400;28;20926;-61
2023/08/10 09:20:00;;;;;;;2.30;2.20;;;31.70;90.40;;;;;;4974587;28;20407;-60
2023/08/10 09:22:33;;;;;;;1.67;1.57;;;31.90;88.30;;;;;;4974534;28;20420;-61
2023/08/10 09:24:59;;;;;;;1.27;1.27;;;32.20;88.50;;;;;;4974069;28;21008;-60
2023/08/10 09:27:29;;;;;;;3.07;1.70;;;32.40;86.60;;;;;;4974319;28;20502;-60
2023/08/10 09:30:00;;;;;;;1.83;1.73;;;33.00;85.70;;;;;;4974377;28;20403;-61
2023/08/10 09:32:26;;;;;;;1.97;1.87;;;33.70;83.50;;;;;;4974347;28;20403;-61
2023/08/10 09:34:52;;;;;;;1.70;1.60;;;34.20;81.60;;;;;;4956806;28;20502;-60
2023/08/10 09:37:19;;;;;;;2.20;2.10;;;34.50;80.40;;;;;;4974453;28;20495;-61
2023/08/10 09:39:45;;;;;;;1.97;1.87;;;34.70;78.90;;;;;;4974522;28;20417;-60
2023/08/10 09:42:10;;;;;;;1.87;1.77;;;35.00;76.30;;;;;;4957564;28;20424;-60
2023/08/10 09:44:47;;;;;;;2.33;1.90;;;35.40;75.40;;;;;;4973996;28;20651;-60
2023/08/10 09:47:14;;;;;;;2.00;1.90;;;35.40;73.40;;;;;;4974223;28;20191;-60
2023/08/10 09:49:56;;;;;;;1.70;1.60;;;35.20;75.10;;;;;;4974513;28;20945;-61
2023/08/10 09:52:23;;;;;;;1.90;1.80;;;35.20;73.70;;;;;;4974513;28;20416;-61
2023/08/10 09:54:53;;;;;;;2.17;1.97;;;35.30;73.00;;;;;;4977704;28;20423;-61
2023/08/10 09:57:20;;;;;;;1.93;1.83;;;35.00;73.50;;;;;;4978204;28;20407;-61
2023/08/10 09:59:46;;;;;;;1.70;1.60;;;35.20;74.10;;;;;;4978133;28;20539;-60
2023/08/10 10:02:13;;;;;;;1.77;1.67;;;35.10;72.10;;;;;;4978238;28;20967;-61
2023/08/10 10:04:39;;;;;;;2.10;2.00;;;35.10;72.90;;;;;;4977369;28;20440;-61
2023/08/10 10:07:07;;;;;;;1.70;1.60;;;34.70;70.10;;;;;;4977505;28;20466;-61
2023/08/10 10:09:37;;;;;;;1.67;1.57;;;34.40;72.10;;;;;;4977745;28;20466;-60
2023/08/10 10:12:09;;;;;;;2.70;1.90;;;34.60;73.00;;;;;;4977752;28;20412;-60
2023/08/10 10:14:46;;;;;;;1.90;1.80;;;35.10;70.90;;;;;;4977420;28;20419;-61
2023/08/10 10:17:14;;;;;;;1.50;1.50;;;35.40;70.10;;;;;;4977803;28;20422;-61
2023/08/10 10:19:40;;;;;;;2.00;1.90;;;35.20;70.90;;;;;;4977684;28;20850;-60
2023/08/10 10:22:07;;;;;;;2.27;2.10;;;35.20;71.90;;;;;;4977499;28;20415;-61
2023/08/10 10:24:34;;;;;;;1.90;1.80;;;35.40;69.80;;;;;;4977421;28;20527;-61
2023/08/10 10:27:13;;;;;;;2.07;1.97;;;35.40;67.60;;;;;;4977906;28;20471;-61
2023/08/10 10:29:51;;;;;;;1.90;1.80;;;35.00;68.70;;;;;;4960209;28;20429;-61
2023/08/10 10:32:21;;;;;;;2.30;2.10;;;34.60;69.50;;;;;;4977336;28;20748;-61
2023/08/10 10:34:49;;;;;;;2.00;1.90;;;34.70;69.70;;;;;;4977276;28;20430;-61
2023/08/10 10:37:21;;;;;;;1.83;1.73;;;34.50;70.70;;;;;;4977412;28;20490;-60
2023/08/10 10:39:51;;;;;;;2.17;2.03;;;33.90;69.40;;;;;;4977456;28;20412;-62
2023/08/10 10:42:18;;;;;;;2.10;1.60;;;33.60;73.40;;;;;;4977269;28;20423;-60
2023/08/10 10:45:14;;;;;;;1.73;1.63;;;33.70;68.50;;;;;;4976793;28;20427;-61
2023/08/10 10:47:49;;;;;;;1.60;1.50;;;33.80;70.70;;;;;;4977218;28;20972;-61
2023/08/10 10:50:23;;;;;;;1.60;1.50;;;33.60;67.00;;;;;;4977181;28;20477;-61
2023/08/10 10:52:59;;;;;;;1.57;1.47;;;33.60;66.60;;;;;;4977230;28;20403;-63
2023/08/10 10:55:45;;;;;;;1.67;1.57;;;33.60;68.00;;;;;;4976789;28;20747;-61
2023/08/10 10:58:12;;;;;;;1.83;1.73;;;33.60;67.30;;;;;;4977050;28;20468;-60
2023/08/10 11:00:39;;;;;;;1.80;1.70;;;33.50;70.80;;;;;;4977078;28;20411;-60
2023/08/10 11:03:10;;;;;;;1.63;1.53;;;33.00;68.70;;;;;;4977565;28;20404;-61
2023/08/10 11:05:36;;;;;;;1.80;1.70;;;32.70;71.50;;;;;;4958518;28;20439;-61
2023/08/10 11:08:03;;;;;;;1.70;1.60;;;32.60;70.30;;;;;;4976935;28;20400;-61
2023/08/10 11:10:31;;;;;;;1.77;1.67;;;32.60;68.70;;;;;;4976758;28;20394;-61
2023/08/10 11:12:57;;;;;;;1.43;1.43;;;32.80;67.10;;;;;;4976759;28;20423;-61
2023/08/10 11:15:23;;;;;;;2.73;1.50;;;32.10;67.00;;;;;;4976227;28;20410;-61
2023/08/10 11:17:53;;;;;;;1.63;1.53;;;31.30;68.00;;;;;;4976598;28;20200;-61
2023/08/10 11:20:20;;;;;;;1.93;1.83;;;30.30;68.40;;;;;;4976678;28;20173;-60
2023/08/10 11:22:50;;;;;;;2.30;2.10;;;29.50;69.90;;;;;;4976359;28;20412;-60
2023/08/10 11:25:20;;;;;;;1.60;1.50;;;28.30;74.40;;;;;;4976109;28;20749;-59
2023/08/10 11:27:48;;;;;;;1.63;1.50;;;27.70;78.00;;;;;;4976357;28;20382;-59
2023/08/10 11:30:16;;;;;;;1.90;1.73;;;27.10;78.70;;;;;;4976272;28;20739;-59
2023/08/10 11:32:43;;;;;;;1.60;1.50;;;26.50;81.00;;;;;;4976444;28;20419;-60
2023/08/10 11:35:09;;;;;;;1.90;1.80;;;26.20;85.40;;;;;;4976079;28;20431;-60
2023/08/10 11:37:39;;;;;;;1.57;1.47;;;25.90;84.90;;;;;;4976127;28;20462;-60
2023/08/10 11:40:13;;;;;;;1.70;1.23;;;25.70;83.80;;;;;;4976174;28;20440;-60
2023/08/10 11:43:11;;;;;;;1.40;1.30;;;25.50;83.90;;;;;;4976245;28;20433;-60
2023/08/10 11:45:38;;;;;;;1.13;1.13;;;25.40;86.50;;;;;;4970348;28;20420;-60
2023/08/10 11:48:12;;;;;;;2.07;1.97;;;25.40;84.00;;;;;;4976174;28;20402;-58
2023/08/10 11:50:39;;;;;;;1.70;1.60;;;25.20;85.10;;;;;;4976040;28;20412;-60
2023/08/10 11:53:10;;;;;;;1.60;1.50;;;25.00;84.00;;;;;;4976085;28;20471;-60
2023/08/10 11:55:44;;;;;;;1.50;1.40;;;24.80;85.60;;;;;;4975743;28;20463;-60
2023/08/10 11:58:13;;;;;;;1.27;1.27;;;24.80;86.00;;;;;;4975943;28;20474;-60
2023/08/10 12:00:40;;;;;;;1.57;1.57;;;24.60;85.30;;;;;;4975899;28;20472;-60
2023/08/10 12:03:21;;;;;;;1.43;1.40;;;24.50;85.10;;;;;;4958679;28;20914;-60
2023/08/10 12:05:50;;;;;;;1.10;1.10;;;24.50;85.10;;;;;;4975129;28;20813;-60
2023/08/10 12:08:18;;;;;;;0.90;0.90;;;24.50;84.20;;;;;;4975581;28;20499;-59
2023/08/10 12:10:48;;;;;;;1.33;1.23;;;24.40;83.60;;;;;;4975675;28;20415;-61
2023/08/10 12:13:15;;;;;;;0.80;0.80;;;24.30;85.00;;;;;;4975893;28;20408;-60
2023/08/10 12:15:51;;;;;;;1.47;1.37;;;24.40;84.30;;;;;;4974662;28;20410;-60
2023/08/10 12:18:19;;;;;;;1.20;1.20;;;24.40;82.60;;;;;;4974987;28;20460;-59
2023/08/10 12:20:46;;;;;;;1.30;1.20;;;24.40;84.10;;;;;;4975571;28;20386;-60
2023/08/10 12:23:13;;;;;;;2.27;1.30;;;24.50;83.00;;;;;;4975336;28;20408;-60
2023/08/10 12:25:40;;;;;;;1.10;1.00;;;24.60;83.70;;;;;;4974909;28;20435;-61
2023/08/10 12:28:07;;;;;;;1.10;0.90;;;24.60;82.50;;;;;;4975308;28;20909;-60
2023/08/10 12:30:33;;;;;;;1.20;1.10;;;24.60;75.00;;;;;;4976744;28;20387;-60
2023/08/10 12:32:59;;;;;;;1.03;1.03;;;24.60;78.00;;;;;;4976697;28;20428;-60
2023/08/10 12:35:24;;;;;;;1.23;1.00;;;24.70;77.90;;;;;;4976100;28;20443;-60
2023/08/10 12:37:50;;;;;;;1.33;1.23;;;24.80;76.60;;;;;;4975861;28;20210;-60
2023/08/10 12:40:16;;;;;;;1.37;1.30;;;24.90;73.60;;;;;;4975443;28;20192;-60
2023/08/10 12:42:45;;;;;;;1.47;1.37;;;24.90;75.40;;;;;;4976766;28;20176;-60
2023/08/10 12:45:12;;;;;;;1.50;1.40;;;24.90;78.00;;;;;;4976529;28;20432;-60
2023/08/10 12:47:42;;;;;;;1.10;1.00;;;24.90;79.20;;;;;;4975285;28;20461;-60
2023/08/10 12:50:15;;;;;;;1.10;1.10;;;24.90;78.70;;;;;;4959403;28;20467;-60
2023/08/10 12:52:42;;;;;;;1.17;1.17;;;25.00;79.70;;;;;;4975871;28;20423;-60
2023/08/10 12:55:08;;;;;;;1.50;1.40;;;25.10;78.60;;;;;;4974761;28;20440;-60
2023/08/10 12:57:35;;;;;;;1.43;1.33;;;25.10;77.30;;;;;;4975157;28;20564;-61
2023/08/10 13:00:05;;;;;;;1.47;1.30;;;25.10;77.30;;;;;;4976589;28;20407;-60
2023/08/10 13:02:31;;;;;;;1.80;1.43;;;25.10;74.60;;;;;;4977163;28;20424;-60
2023/08/10 13:04:57;;;;;;;1.70;1.60;;;25.10;79.50;;;;;;4975051;28;20451;-60
2023/08/10 13:07:22;;;;;;;1.40;1.30;;;25.20;80.40;;;;;;4975614;28;20901;-62
2023/08/10 13:09:48;;;;;;;1.60;1.50;;;25.30;79.10;;;;;;4975021;28;20208;-60
2023/08/10 13:12:14;;;;;;;1.23;1.13;;;25.40;78.40;;;;;;4975669;28;20227;-60
2023/08/10 13:14:39;;;;;;;1.47;1.37;;;25.40;77.70;;;;;;4975463;28;20235;-60
2023/08/10 13:17:06;;;;;;;1.27;1.17;;;25.50;75.10;;;;;;4978039;28;20513;-60
2023/08/10 13:19:33;;;;;;;1.30;1.20;;;25.40;73.70;;;;;;4974878;28;20223;-60
2023/08/10 13:22:00;;;;;;;1.20;1.10;;;25.30;74.60;;;;;;4974605;28;20914;-61
2023/08/10 13:24:25;;;;;;;1.53;1.40;;;25.30;75.90;;;;;;4974165;28;20418;-62
2023/08/10 13:26:51;;;;;;;1.30;1.10;;;25.30;76.20;;;;;;4974581;28;20510;-60
2023/08/10 13:29:17;;;;;;;1.00;1.00;;;25.40;75.50;;;;;;4977840;28;20542;-60
2023/08/10 13:31:43;;;;;;;1.33;1.23;;;25.40;75.40;;;;;;4978438;28;20199;-60
2023/08/10 13:34:11;;;;;;;1.50;1.40;;;25.50;76.00;;;;;;4978061;28;20411;-60
2023/08/10 13:36:38;;;;;;;1.50;1.40;;;25.50;76.80;;;;;;4978473;28;20184;-60
2023/08/10 13:39:04;;;;;;;1.60;1.50;;;25.60;78.20;;;;;;4978357;28;20419;-60
2023/08/10 13:41:30;;;;;;;1.60;1.20;;;25.60;79.10;;;;;;4978451;28;20423;-60
2023/08/10 13:43:55;;;;;;;1.40;1.30;;;25.70;78.90;;;;;;4978033;28;20394;-60
2023/08/10 13:46:21;;;;;;;3.27;1.83;;;25.70;77.40;;;;;;4978109;28;20198;-60
2023/08/10 13:48:47;;;;;;;1.03;1.03;;;25.70;78.70;;;;;;4978787;28;20183;-60
2023/08/10 13:51:12;;;;;;;1.97;1.40;;;25.70;78.70;;;;;;4978400;28;20273;-60
2023/08/10 13:53:38;;;;;;;1.70;1.60;;;25.70;76.10;;;;;;4978048;28;20186;-60
2023/08/10 13:56:04;;;;;;;1.63;1.53;;;25.60;76.00;;;;;;4977883;28;20192;-59
2023/08/10 13:58:29;;;;;;;1.77;1.60;;;25.50;76.20;;;;;;4978262;28;20204;-60
2023/08/10 14:00:55;;;;;;;1.63;1.53;;;25.50;76.90;;;;;;4978120;28;20204;-60
2023/08/10 14:03:21;;;;;;;1.40;1.30;;;25.40;79.50;;;;;;4978111;28;20182;-60
2023/08/10 14:05:46;;;;;;;1.20;1.10;;;25.40;79.00;;;;;;4977515;28;20200;-60
2023/08/10 14:08:12;;;;;;;1.47;1.37;;;25.50;80.00;;;;;;4977782;28;20211;-60
2023/08/10 14:10:37;;;;;;;1.10;1.10;;;25.50;79.50;;;;;;4977453;28;20657;-60
2023/08/10 14:13:03;;;;;;;1.67;1.57;;;25.60;78.70;;;;;;4977109;28;20539;-60
2023/08/10 14:15:29;;;;;;;2.63;2.43;;;25.60;79.50;;;;;;4976959;28;20196;-60
2023/08/10 14:17:55;;;;;;;1.57;1.47;;;25.60;79.90;;;;;;4977119;28;20679;-60
2023/08/10 14:20:20;;;;;;;1.60;1.50;;;25.70;79.50;;;;;;4977012;28;20177;-60
2023/08/10 14:22:46;;;;;;;1.50;1.40;;;25.60;76.70;;;;;;4977064;28;20223;-60
2023/08/10 14:25:12;;;;;;;1.50;1.40;;;25.60;77.40;;;;;;4976462;28;20204;-60
2023/08/10 14:27:37;;;;;;;1.50;1.40;;;25.60;78.10;;;;;;4977033;28;20272;-60
2023/08/10 14:30:03;;;;;;;1.30;1.20;;;25.60;77.00;;;;;;4977323;28;20187;-61
2023/08/10 14:32:29;;;;;;;1.47;1.30;;;25.60;77.30;;;;;;4976873;28;20563;-61
2023/08/10 14:34:55;;;;;;;1.80;1.40;;;25.60;77.70;;;;;;4976577;28;20431;-60
2023/08/10 14:37:20;;;;;;;1.00;1.00;;;25.60;77.60;;;;;;4976798;28;20606;-61
2023/08/10 14:39:46;;;;;;;1.40;1.37;;;25.50;76.30;;;;;;4975490;28;20173;-60
2023/08/10 14:42:12;;;;;;;1.40;1.30;;;25.50;76.20;;;;;;4976713;28;20196;-60
2023/08/10 14:44:37;;;;;;;2.10;1.83;;;25.40;76.70;;;;;;4976210;28;20671;-60
2023/08/10 14:47:03;;;;;;;1.23;1.23;;;25.40;80.30;;;;;;4977017;28;20186;-60
2023/08/10 14:49:31;;;;;;;1.30;1.30;;;25.40;80.40;;;;;;4977053;28;20627;-60
2023/08/10 14:51:56;;;;;;;1.13;1.13;;;25.40;79.70;;;;;;4977306;28;20188;-60
2023/08/10 14:54:22;;;;;;;1.40;1.30;;;25.40;77.60;;;;;;4976584;28;20874;-60
2023/08/10 14:56:48;;;;;;;1.20;1.10;;;25.40;77.60;;;;;;4976723;28;20179;-60
2023/08/10 14:59:14;;;;;;;1.67;1.57;;;25.40;78.60;;;;;;4959843;28;20602;-60
2023/08/10 15:01:39;;;;;;;1.60;1.50;;;25.30;77.00;;;;;;4977126;28;20410;-60
2023/08/10 15:04:08;;;;;;;1.60;1.50;;;25.30;77.50;;;;;;4976597;28;20172;-60
2023/08/10 15:06:35;;;;;;;1.30;1.20;;;25.30;77.90;;;;;;4976581;28;20548;-60
2023/08/10 15:09:01;;;;;;;1.50;1.40;;;25.30;78.30;;;;;;4976871;28;20465;-60
2023/08/10 15:11:27;;;;;;;1.33;1.20;;;25.30;80.40;;;;;;4976585;28;20416;-60
2023/08/10 15:13:53;;;;;;;1.00;1.00;;;25.20;79.30;;;;;;4976345;28;20420;-60
2023/08/10 15:16:19;;;;;;;1.20;1.20;;;25.20;79.70;;;;;;4976448;28;20658;-60
2023/08/10 15:18:46;;;;;;;1.70;1.60;;;25.20;79.30;;;;;;4976651;28;20473;-59
2023/08/10 15:21:12;;;;;;;1.10;1.10;;;25.20;80.00;;;;;;4976565;28;20453;-60
2023/08/10 15:23:38;;;;;;;0.90;0.90;;;25.20;81.10;;;;;;4976381;28;20894;-61
2023/08/10 15:26:03;;;;;;;1.60;1.50;;;25.20;79.00;;;;;;4976342;28;20196;-60
2023/08/10 15:28:29;;;;;;;1.70;1.60;;;25.20;79.50;;;;;;4959488;28;20192;-60
2023/08/10 15:30:55;;;;;;;2.50;1.30;;;25.30;79.50;;;;;;4976417;28;20184;-60
2023/08/10 15:33:20;;;;;;;1.40;1.23;;;25.20;79.20;;;;;;4976541;28;20635;-59
2023/08/10 15:35:46;;;;;;;1.67;1.33;;;25.10;79.30;;;;;;4975916;28;20668;-60
2023/08/10 15:38:11;;;;;;;1.20;1.20;;;25.10;78.90;;;;;;4976262;28;20227;-60
2023/08/10 15:40:37;;;;;;;1.00;1.00;;;25.10;79.00;;;;;;4976094;28;20188;-60
2023/08/10 15:43:03;;;;;;;1.47;1.37;;;25.10;78.90;;;;;;4976241;28;20208;-60
2023/08/10 15:45:29;;;;;;;1.80;1.33;;;25.00;79.00;;;;;;4975941;28;20200;-60
2023/08/10 15:47:55;;;;;;;1.63;1.50;;;25.00;79.60;;;;;;4976255;28;20420;-60
2023/08/10 15:50:20;;;;;;;1.00;1.00;;;25.00;80.20;;;;;;4975746;28;20176;-59
2023/08/10 15:52:46;;;;;;;1.83;1.40;;;25.00;80.00;;;;;;4958587;28;20259;-59
2023/08/10 15:55:11;;;;;;;4.20;1.33;;;25.00;80.20;;;;;;4975468;28;20204;-60
2023/08/10 15:57:37;;;;;;;1.40;1.30;;;25.00;79.40;;;;;;4975936;28;20603;-60
2023/08/10 16:00:04;;;;;;;1.20;1.10;;;25.00;77.70;;;;;;4975813;28;20178;-60
2023/08/10 16:02:31;;;;;;;1.30;1.20;;;25.00;77.80;;;;;;4975712;28;20263;-61
2023/08/10 16:04:56;;;;;;;1.00;0.97;;;24.90;77.50;;;;;;4975366;28;20458;-60
2023/08/10 16:07:23;;;;;;;1.40;1.30;;;24.90;78.00;;;;;;4975943;28;20922;-64
2023/08/10 16:09:49;;;;;;;1.23;1.17;;;24.90;78.60;;;;;;4975766;28;20535;-61
2023/08/10 16:12:14;;;;;;;1.63;1.53;;;24.80;77.70;;;;;;4975876;28;20412;-61
2023/08/10 16:14:40;;;;;;;1.70;1.50;;;24.80;78.20;;;;;;4975595;28;20219;-60
2023/08/10 16:17:06;;;;;;;1.00;1.00;;;24.80;78.80;;;;;;4958194;28;20287;-60
2023/08/10 16:19:31;;;;;;;1.33;1.23;;;24.80;79.30;;;;;;4975408;28;20174;-60
2023/08/10 16:21:57;;;;;;;1.67;1.40;;;24.70;78.80;;;;;;4975296;28;20184;-60
2023/08/10 16:24:22;;;;;;;0.90;0.80;;;24.80;78.40;;;;;;4974855;28;20177;-60
2023/08/10 16:26:48;;;;;;;0.80;0.80;;;24.70;78.70;;;;;;4975309;28;20176;-60
2023/08/10 16:29:13;;;;;;;1.20;1.10;;;24.70;79.00;;;;;;4975416;28;20234;-60
2023/08/10 16:31:39;;;;;;;1.10;1.10;;;24.70;78.70;;;;;;4957939;28;20547;-60
2023/08/10 16:34:05;;;;;;;1.30;1.23;;;24.60;78.70;;;;;;4975068;28;20180;-60
2023/08/10 16:36:31;;;;;;;1.50;1.40;;;24.60;79.40;;;;;;4975014;28;20192;-61
2023/08/10 16:38:57;;;;;;;1.90;1.33;;;24.60;80.10;;;;;;4974860;28;20441;-60
2023/08/10 16:41:23;;;;;;;1.30;1.20;;;24.60;79.60;;;;;;4975524;28;20479;-59
2023/08/10 16:43:48;;;;;;;1.30;1.30;;;24.60;80.80;;;;;;4976817;28;20200;-61
2023/08/10 16:46:14;;;;;;;1.23;1.13;;;24.60;79.70;;;;;;4976701;28;20192;-60
2023/08/10 16:48:40;;;;;;;1.80;1.70;;;24.50;79.30;;;;;;4957756;28;20880;-60
2023/08/10 16:51:05;;;;;;;1.40;1.30;;;24.50;79.10;;;;;;4974793;28;20180;-60